Time;durP1;ratioP1;P1;durP2;ratioP2;P2;SDS_P1;SDS_P2;PMS_P1;PMS_P2;Temp;Humidity;BMP_temperature;BMP_pressure;BME280_temperature;BME280_humidity;BME280_pressure;Samples;Min_cycle;Max_cycle;Signal;HPM_P1;HPM_P2
2020/12/26 09:29:41;;;;;;;14.00;10.87;;;;;;;0.45;98.00;99838.78;5169574;27;20923;-82
2020/12/26 09:32:09;;;;;;;18.63;11.63;;;;;;;0.92;99.41;99838.47;5150472;27;39034;-82
2020/12/26 09:34:36;;;;;;;14.53;10.90;;;;;;;1.20;99.16;99820.84;5236432;22;42627;-84
2020/12/26 09:37:05;;;;;;;13.80;10.47;;;;;;;1.56;98.01;99835.25;5112597;27;42916;-84
2020/12/26 09:39:32;;;;;;;16.57;10.60;;;;;;;1.85;96.64;99842.78;5145257;27;41960;-84
2020/12/26 09:41:59;;;;;;;12.37;10.00;;;;;;;1.96;94.70;99830.44;5108986;27;41436;-83
2020/12/26 09:44:27;;;;;;;13.80;9.73;;;;;;;2.22;93.16;99832.75;5125412;27;42500;-84
2020/12/26 09:47:00;;;;;;;15.73;10.80;;;;;;;2.34;91.42;99836.06;5198658;22;43008;-81
2020/12/26 09:49:27;;;;;;;13.17;10.97;;;;;;;2.62;90.10;99838.25;5141856;27;41756;-81
2020/12/26 09:51:54;;;;;;;15.23;10.40;;;;;;;2.77;88.42;99838.03;5107818;27;41687;-81
2020/12/26 09:54:22;;;;;;;11.63;9.60;;;;;;;2.91;87.39;99836.06;5125226;27;41603;-83
2020/12/26 09:56:49;;;;;;;13.13;10.30;;;;;;;3.03;86.84;99825.41;5125638;27;42790;-82
2020/12/26 09:59:16;;;;;;;14.27;10.10;;;;;;;3.15;86.03;99822.56;5192052;22;42656;-81
2020/12/26 10:01:47;;;;;;;13.23;10.53;;;;;;;3.35;85.27;99821.34;5087892;28;41427;-83
2020/12/26 10:04:15;;;;;;;14.43;10.83;;;;;;;3.69;84.00;99838.19;5104932;28;42283;-84
2020/12/26 10:06:44;;;;;;;14.90;11.53;;;;;;;3.93;83.05;99832.47;5087935;28;44890;-84
2020/12/26 10:11:52;;;;;;;16.43;12.40;;;;;;;4.41;81.95;99840.19;5104016;28;20260;-83
2020/12/26 10:14:19;;;;;;;19.37;12.90;;;;;;;4.44;80.89;99819.16;5087534;28;42180;-83
2020/12/26 10:16:46;;;;;;;17.60;13.03;;;;;;;4.54;81.11;99820.69;5087019;28;43268;-82
2020/12/26 10:19:14;;;;;;;15.77;12.10;;;;;;;4.66;80.58;99837.91;5087942;28;43149;-81
2020/12/26 10:21:42;;;;;;;16.67;12.67;;;;;;;4.67;80.60;99832.63;5161390;22;40444;-82
2020/12/26 10:24:09;;;;;;;15.57;11.80;;;;;;;4.66;79.82;99830.03;5103976;28;41945;-81
2020/12/26 10:26:36;;;;;;;17.27;11.70;;;;;;;4.63;79.38;99836.19;5121917;27;43312;-81
2020/12/26 10:29:04;;;;;;;16.60;10.80;;;;;;;4.64;80.50;99843.16;5104450;28;42681;-82
2020/12/26 10:31:30;;;;;;;14.73;11.37;;;;;;;4.68;80.26;99836.09;5087016;28;40586;-81
2020/12/26 10:33:58;;;;;;;17.60;11.43;;;;;;;4.64;78.60;99835.31;5190600;22;41735;-81
2020/12/26 10:36:25;;;;;;;16.80;12.20;;;;;;;4.63;79.49;99823.06;5111262;27;44058;-83
2020/12/26 10:38:53;;;;;;;14.30;12.53;;;;;;;4.68;78.98;99828.22;5126731;27;42979;-82
2020/12/26 10:41:21;;;;;;;16.43;11.70;;;;;;;4.61;78.78;99814.38;5097246;27;40661;-81
2020/12/26 10:43:48;;;;;;;17.40;12.03;;;;;;;4.54;79.86;99788.34;5097100;27;42956;-82
2020/12/26 10:46:15;;;;;;;16.23;12.17;;;;;;;4.75;79.20;99818.44;5195082;22;44586;-82
2020/12/26 10:48:42;;;;;;;18.50;12.30;;;;;;;4.74;79.23;99821.97;5131218;27;42038;-82
2020/12/26 10:51:10;;;;;;;16.77;12.77;;;;;;;4.63;78.20;99814.34;5113975;27;40369;-81
2020/12/26 10:53:37;;;;;;;14.97;12.60;;;;;;;4.66;78.71;99823.00;5114717;27;43281;-83
2020/12/26 10:56:06;;;;;;;19.77;13.83;;;;;;;4.67;78.04;99819.50;5201325;22;43285;-83
2020/12/26 10:58:33;;;;;;;16.60;11.97;;;;;;;4.68;78.57;99804.63;5116892;27;41611;-84
2020/12/26 11:01:00;;;;;;;16.60;12.00;;;;;;;4.80;79.17;99801.69;5152548;27;41066;-82
2020/12/26 11:03:27;;;;;;;19.80;12.37;;;;;;;4.83;77.99;99806.00;5118431;27;40176;-81
2020/12/26 11:05:54;;;;;;;16.73;12.63;;;;;;;4.87;77.66;99805.03;5117682;27;43551;-83
2020/12/26 11:08:22;;;;;;;19.57;13.37;;;;;;;4.86;77.00;99795.44;5195547;22;42846;-80
2020/12/26 11:10:49;;;;;;;15.90;12.47;;;;;;;5.07;77.14;99801.00;5093694;28;41729;-82
2020/12/26 11:13:17;;;;;;;17.30;12.23;;;;;;;5.21;77.15;99790.16;5110661;28;41810;-81
2020/12/26 11:15:44;;;;;;;18.87;13.30;;;;;;;5.49;77.06;99792.91;5094245;28;43531;-83
2020/12/26 11:18:11;;;;;;;18.70;12.70;;;;;;;5.60;75.30;99795.25;5111135;28;41932;-83
2020/12/26 11:20:38;;;;;;;16.90;12.10;;;;;;;5.31;76.05;99741.75;5197890;22;39917;-82
2020/12/26 11:23:06;;;;;;;20.20;12.73;;;;;;;5.69;75.89;99784.47;5093792;28;42970;-82
2020/12/26 11:25:33;;;;;;;17.07;12.70;;;;;;;5.63;75.23;99774.16;5093068;28;44265;-82
2020/12/26 11:28:02;;;;;;;17.40;12.43;;;;;;;5.63;74.07;99782.03;5110409;28;42266;-83
2020/12/26 11:30:30;;;;;;;15.33;11.90;;;;;;;5.63;73.67;99800.44;5094133;28;40770;-84
2020/12/26 11:32:57;;;;;;;17.90;13.10;;;;;;;5.41;72.39;99781.75;5178556;22;41815;-86
2020/12/26 11:35:24;;;;;;;18.70;12.77;;;;;;;5.43;73.42;99773.84;5109506;28;42989;-85
2020/12/26 11:37:51;;;;;;;15.73;12.13;;;;;;;5.38;74.59;99752.94;5093079;28;43000;-84
2020/12/26 11:40:18;;;;;;;17.27;13.50;;;;;;;5.59;73.05;99785.63;5109791;28;39819;-83
2020/12/26 11:42:45;;;;;;;17.03;12.43;;;;;;;5.52;72.91;99763.06;5180920;22;43883;-83
2020/12/26 11:45:12;;;;;;;16.50;12.93;;;;;;;5.45;72.90;99737.84;5073179;28;41867;-87
2020/12/26 11:47:41;;;;;;;16.87;12.83;;;;;;;5.75;72.36;99781.69;5057116;28;42293;-87
2020/12/26 11:50:09;;;;;;;17.30;12.40;;;;;;;5.76;71.97;99767.66;5053967;28;42126;-86
2020/12/26 11:52:36;;;;;;;16.93;11.53;;;;;;;5.89;71.80;99770.81;5049559;28;42998;-85
2020/12/26 11:55:03;;;;;;;16.20;11.83;;;;;;;5.88;71.22;99780.47;5159617;22;44609;-87
2020/12/26 11:57:30;;;;;;;16.60;12.20;;;;;;;5.89;71.52;99776.06;5098061;27;43518;-87
2020/12/26 11:59:57;;;;;;;16.03;11.50;;;;;;;5.96;71.77;99767.97;5083521;28;40795;-86
2020/12/26 12:02:25;;;;;;;16.43;12.00;;;;;;;6.12;72.43;99758.72;5072463;28;42122;-86
2020/12/26 12:04:54;;;;;;;16.53;12.60;;;;;;;6.22;72.12;99740.88;5071302;28;44357;-83
2020/12/26 12:07:21;;;;;;;17.23;11.73;;;;;;;6.44;70.92;99760.34;5168976;22;43030;-86
2020/12/26 12:09:48;;;;;;;15.83;11.53;;;;;;;6.55;71.40;99746.88;5091346;28;40657;-84
2020/12/26 12:12:15;;;;;;;15.10;12.27;;;;;;;6.64;70.70;99738.69;5091491;28;41998;-86
2020/12/26 12:14:43;;;;;;;14.37;11.17;;;;;;;6.63;70.12;99736.09;5092377;28;44301;-87
2020/12/26 12:17:10;;;;;;;13.50;10.10;;;;;;;6.69;69.67;99742.00;5092861;28;42514;-84
2020/12/26 12:19:37;;;;;;;14.43;11.20;;;;;;;6.65;69.69;99727.25;5196198;22;39853;-89
2020/12/26 12:22:05;;;;;;;15.83;12.33;;;;;;;6.73;68.48;99751.53;5091941;28;42093;-87
2020/12/26 12:24:32;;;;;;;14.30;11.30;;;;;;;6.73;68.45;99746.25;5092462;28;43206;-91
2020/12/26 12:26:59;;;;;;;13.07;9.93;;;;;;;6.60;68.48;99718.63;5092225;28;42226;-88
2020/12/26 12:32:48;;;;;;;14.23;10.97;;;;;;;6.67;68.24;99733.31;838997;22;21968;-79
2020/12/26 12:35:15;;;;;;;15.40;10.73;;;;;;;6.71;68.53;99719.13;5073691;28;42125;-83
2020/12/26 12:37:46;;;;;;;11.73;9.83;;;;;;;6.99;68.11;99726.97;5075902;28;43282;-89
2020/12/26 12:40:13;;;;;;;11.97;9.97;;;;;;;7.01;67.04;99709.34;5075391;28;40796;-86
2020/12/26 12:42:41;;;;;;;13.63;9.53;;;;;;;6.98;66.38;99719.97;5178968;22;42017;-86
2020/12/26 12:45:08;;;;;;;12.77;9.33;;;;;;;7.01;66.49;99726.91;5095307;27;44183;-84
2020/12/26 12:47:35;;;;;;;10.93;9.13;;;;;;;6.77;66.13;99707.53;5095925;27;42755;-83
2020/12/26 12:50:04;;;;;;;12.93;9.20;;;;;;;6.79;66.52;99730.28;5112328;27;39900;-86
2020/12/26 12:52:32;;;;;;;12.67;8.47;;;;;;;6.56;66.29;99706.47;5190498;22;42148;-81
2020/12/26 12:55:00;;;;;;;12.10;9.27;;;;;;;6.54;66.22;99721.47;5072758;28;43983;-84
2020/12/26 12:57:27;;;;;;;11.33;8.73;;;;;;;6.39;66.32;99708.78;5091416;28;43526;-83
2020/12/26 12:59:54;;;;;;;10.87;8.80;;;;;;;6.37;66.00;99724.63;5074951;28;40626;-83
2020/12/26 13:02:21;;;;;;;12.40;9.23;;;;;;;6.18;65.68;99706.84;5108940;27;42097;-84
2020/12/26 13:04:48;;;;;;;11.30;8.90;;;;;;;6.22;66.66;99708.44;5158189;22;44274;-86
2020/12/26 13:07:15;;;;;;;11.97;8.90;;;;;;;6.21;67.31;99710.22;5054706;28;42934;-83
2020/12/26 13:09:43;;;;;;;11.87;9.40;;;;;;;6.17;67.36;99697.22;5054675;28;41032;-82
2020/12/26 13:12:10;;;;;;;12.23;9.90;;;;;;;6.05;67.02;99685.34;5064450;28;42675;-86
2020/12/26 13:14:37;;;;;;;13.13;10.20;;;;;;;6.00;67.22;99690.72;5071326;28;43785;-84
2020/12/26 13:17:06;;;;;;;14.87;9.27;;;;;;;5.90;67.43;99689.28;5144002;22;44041;-87
2020/12/26 13:19:33;;;;;;;14.13;11.20;;;;;;;5.84;67.95;99683.28;5054378;28;41220;-85
2020/12/26 13:22:00;;;;;;;16.47;10.13;;;;;;;5.77;68.26;99677.38;5088168;28;42428;-83
2020/12/26 13:24:28;;;;;;;14.97;11.17;;;;;;;5.54;68.68;99661.44;5070739;28;44652;-85
2020/12/26 13:26:55;;;;;;;12.57;10.07;;;;;;;5.40;68.56;99657.44;5051627;28;42500;-87
2020/12/26 13:29:22;;;;;;;14.37;10.40;;;;;;;5.42;69.22;99667.91;5166675;22;40906;-83
2020/12/26 13:31:49;;;;;;;14.10;10.87;;;;;;;5.36;69.62;99671.56;5071023;28;42041;-81
2020/12/26 13:34:16;;;;;;;15.40;10.40;;;;;;;5.20;69.81;99640.50;5100838;28;43591;-84
2020/12/26 13:36:43;;;;;;;19.87;13.77;;;;;;;5.28;70.00;99652.53;5092673;28;42767;-84
2020/12/26 13:39:11;;;;;;;13.93;11.03;;;;;;;4.99;70.11;99631.47;5198648;22;40998;-83
2020/12/26 13:41:38;;;;;;;15.50;11.27;;;;;;;5.05;70.54;99633.94;5129736;27;41395;-83
2020/12/26 13:44:06;;;;;;;13.47;9.70;;;;;;;5.19;70.48;99657.19;5114932;27;43981;-89
2020/12/26 13:46:34;;;;;;;13.63;10.10;;;;;;;5.19;70.49;99652.81;5132223;27;43650;-87
2020/12/26 13:49:02;;;;;;;15.57;11.47;;;;;;;5.14;69.92;99653.81;5114890;27;40480;-87
2020/12/26 13:51:29;;;;;;;13.17;10.00;;;;;;;4.77;70.25;99597.09;5177729;22;42388;-81
2020/12/26 13:53:56;;;;;;;13.93;10.13;;;;;;;4.92;70.50;99624.69;5086163;28;44131;-89
2020/12/26 13:56:24;;;;;;;15.23;10.70;;;;;;;4.95;70.93;99621.94;5070453;28;43332;-86
2020/12/26 13:58:51;;;;;;;15.73;10.90;;;;;;;4.99;70.77;99631.47;5070384;28;41288;-82
2020/12/26 14:01:18;;;;;;;14.17;10.13;;;;;;;4.97;70.32;99638.53;5086167;28;41488;-83
2020/12/26 14:03:46;;;;;;;13.33;10.97;;;;;;;4.83;70.55;99617.03;5186369;22;42524;-85
2020/12/26 14:06:13;;;;;;;12.67;9.90;;;;;;;4.47;71.25;99562.03;5106924;28;42622;-84
2020/12/26 14:08:41;;;;;;;12.97;9.40;;;;;;;4.79;71.13;99620.66;5087310;28;42070;-82
2020/12/26 14:11:08;;;;;;;12.27;9.97;;;;;;;4.80;71.44;99617.16;5103265;28;41685;-83
2020/12/26 14:13:36;;;;;;;14.70;10.37;;;;;;;4.78;71.28;99618.94;5107451;27;43223;-85
2020/12/26 14:16:04;;;;;;;13.00;9.60;;;;;;;4.63;71.21;99604.47;5203565;22;42152;-83
2020/12/26 14:18:31;;;;;;;13.57;9.70;;;;;;;4.67;71.49;99616.63;5131670;27;39937;-84
2020/12/26 14:20:59;;;;;;;12.70;10.60;;;;;;;4.51;71.43;99613.53;5121938;27;42264;-82
2020/12/26 14:23:26;;;;;;;14.83;11.27;;;;;;;4.55;71.66;99617.81;5097716;27;43996;-84
2020/12/26 14:25:54;;;;;;;13.20;10.40;;;;;;;4.44;71.91;99604.09;5193675;22;42587;-83
2020/12/26 14:28:22;;;;;;;16.57;11.13;;;;;;;4.43;71.88;99620.75;5135092;27;40184;-83
2020/12/26 14:30:48;;;;;;;16.60;11.23;;;;;;;4.16;72.22;99597.81;5117658;27;42618;-84
2020/12/26 14:33:15;;;;;;;12.77;10.37;;;;;;;4.25;72.50;99622.03;5130617;27;43929;-84
2020/12/26 14:35:43;;;;;;;17.03;11.10;;;;;;;4.26;72.58;99625.53;5151912;27;42927;-82
2020/12/26 14:38:11;;;;;;;12.53;10.43;;;;;;;4.22;72.89;99623.88;5195172;22;40724;-82
2020/12/26 14:40:40;;;;;;;12.97;10.70;;;;;;;4.21;72.79;99632.63;5226080;22;42990;-86
2020/12/26 14:43:07;;;;;;;13.77;10.47;;;;;;;4.04;72.69;99592.88;5116649;27;44756;-87
2020/12/26 14:45:35;;;;;;;12.40;10.33;;;;;;;4.06;72.89;99604.19;5131481;27;41667;-87
2020/12/26 14:48:03;;;;;;;14.03;10.00;;;;;;;4.12;72.96;99617.13;5118127;27;40647;-86
2020/12/26 14:50:32;;;;;;;14.77;11.13;;;;;;;3.99;73.01;99600.84;5189251;22;42553;-86
2020/12/26 14:53:01;;;;;;;13.40;10.80;;;;;;;4.00;73.54;99599.94;5085772;27;43170;-86
2020/12/26 14:55:29;;;;;;;14.50;10.83;;;;;;;3.92;73.51;99587.03;5076472;28;42456;-87
2020/12/26 14:57:57;;;;;;;14.30;10.63;;;;;;;3.92;73.52;99589.66;5072849;28;40101;-86
2020/12/26 15:00:25;;;;;;;13.13;10.63;;;;;;;4.01;73.49;99592.94;5084208;28;41912;-87
2020/12/26 15:02:53;;;;;;;14.37;11.13;;;;;;;4.00;73.16;99594.72;5182976;22;44092;-90
2020/12/26 15:05:20;;;;;;;13.93;11.03;;;;;;;3.93;73.26;99591.38;5075821;28;42761;-87
2020/12/26 15:07:47;;;;;;;14.27;10.87;;;;;;;3.87;73.52;99588.03;5091678;28;39067;-87
2020/12/26 15:10:14;;;;;;;13.30;11.33;;;;;;;3.87;73.47;99599.38;5076809;28;42767;-89
2020/12/26 15:15:19;;;;;;;15.73;11.03;;;;;;;3.84;73.41;99602.06;5033155;28;40647;-85
2020/12/26 15:17:46;;;;;;;13.63;10.60;;;;;;;3.89;73.58;99612.44;5044777;28;41437;-85
2020/12/26 15:20:13;;;;;;;14.87;10.73;;;;;;;3.87;73.47;99611.63;5041275;28;42289;-85
2020/12/26 15:22:40;;;;;;;12.40;11.10;;;;;;;3.89;73.49;99609.81;5048110;28;42534;-86
2020/12/26 15:25:07;;;;;;;13.47;10.50;;;;;;;3.81;73.53;99591.69;5158475;22;43500;-86
2020/12/26 15:27:34;;;;;;;15.90;12.33;;;;;;;3.77;73.63;99590.03;5073999;28;41970;-87
2020/12/26 15:30:01;;;;;;;14.43;10.43;;;;;;;3.79;73.81;99588.22;5073691;28;43593;-87
2020/12/26 15:32:29;;;;;;;12.50;9.90;;;;;;;3.65;74.17;99563.25;5073355;28;44308;-88
2020/12/26 15:34:57;;;;;;;13.70;10.70;;;;;;;3.74;73.93;99579.59;5076517;28;43706;-84
2020/12/26 15:37:24;;;;;;;15.43;11.10;;;;;;;3.63;73.95;99581.63;5170429;22;40486;-87
2020/12/26 15:39:51;;;;;;;13.00;9.40;;;;;;;3.59;73.92;99574.72;5092400;28;42169;-84
2020/12/26 15:42:20;;;;;;;15.47;10.70;;;;;;;3.65;74.04;99587.69;5092730;28;43324;-84
2020/12/26 15:44:48;;;;;;;12.83;9.87;;;;;;;3.63;74.12;99596.47;5089220;28;42723;-86
2020/12/26 15:47:15;;;;;;;13.67;10.60;;;;;;;3.48;74.08;99577.56;5069888;28;41689;-85
2020/12/26 15:49:43;;;;;;;12.40;9.93;;;;;;;3.48;74.11;99592.44;5195963;22;42156;-86
2020/12/26 15:52:11;;;;;;;14.27;10.90;;;;;;;3.39;74.46;99593.50;5112633;27;43341;-87
2020/12/26 15:54:38;;;;;;;10.77;9.07;;;;;;;3.32;74.50;99585.81;5112287;27;43315;-85
2020/12/26 15:57:05;;;;;;;13.27;9.37;;;;;;;3.28;74.74;99576.31;5111671;27;40336;-86
2020/12/26 15:59:33;;;;;;;10.80;8.13;;;;;;;3.14;74.76;99572.22;5212351;22;43367;-86
2020/12/26 16:02:01;;;;;;;11.13;7.80;;;;;;;3.16;74.99;99580.03;5052666;28;41793;-86
2020/12/26 16:04:28;;;;;;;10.00;8.57;;;;;;;2.97;74.92;99563.84;5053224;28;42243;-85
2020/12/26 16:06:56;;;;;;;12.77;9.13;;;;;;;2.91;75.19;99564.00;5061435;28;40957;-89
2020/12/26 16:09:23;;;;;;;10.57;7.70;;;;;;;2.84;75.72;99578.94;5057028;28;42032;-87
2020/12/26 16:11:50;;;;;;;10.60;7.63;;;;;;;2.85;75.83;99583.28;5135121;22;43317;-86
2020/12/26 16:14:17;;;;;;;13.17;8.87;;;;;;;2.84;75.72;99578.09;5043985;28;42633;-87
2020/12/26 16:16:47;;;;;;;10.17;8.03;;;;;;;2.84;75.98;99557.16;5041922;28;40846;-88
2020/12/26 16:19:14;;;;;;;11.77;8.40;;;;;;;2.86;75.73;99571.06;5065812;28;42789;-86
2020/12/26 16:21:42;;;;;;;11.43;8.13;;;;;;;2.87;75.82;99563.19;5049878;28;41994;-89
2020/12/26 16:24:10;;;;;;;10.40;8.00;;;;;;;2.92;75.94;99575.31;5154460;22;43670;-88
2020/12/26 16:26:37;;;;;;;11.10;8.43;;;;;;;2.83;76.12;99560.69;5056937;28;40262;-84
2020/12/26 16:29:04;;;;;;;11.57;8.53;;;;;;;2.82;76.00;99553.72;5048942;28;41587;-89
2020/12/26 16:31:37;;;;;;;9.70;7.87;;;;;;;2.97;76.17;99563.84;5055367;28;43043;-87
2020/12/26 16:34:04;;;;;;;9.67;7.80;;;;;;;2.88;75.98;99540.50;5072121;28;43846;-86
2020/12/26 16:36:31;;;;;;;10.40;7.93;;;;;;;2.81;76.09;99536.31;5231195;22;39706;-88
2020/12/26 16:38:59;;;;;;;10.10;7.63;;;;;;;2.96;76.18;99562.16;5114876;27;42135;-87
2020/12/26 16:41:32;;;;;;;13.40;9.10;;;;;;;2.92;76.24;99555.25;5125696;27;43352;-87
2020/12/26 16:44:00;;;;;;;11.10;8.03;;;;;;;2.98;76.25;99556.84;5117806;27;42699;-85
2020/12/26 16:46:28;;;;;;;8.90;7.97;;;;;;;2.90;76.19;99557.03;5201686;22;41632;-88
2020/12/26 16:48:56;;;;;;;11.17;7.93;;;;;;;3.00;76.24;99569.03;5137005;27;41911;-88
2020/12/26 16:51:26;;;;;;;11.50;8.50;;;;;;;3.07;76.12;99570.63;5116655;27;44497;-88
2020/12/26 16:53:53;;;;;;;10.30;8.17;;;;;;;3.06;75.87;99555.81;5108419;27;43535;-86
2020/12/26 16:56:20;;;;;;;12.33;7.97;;;;;;;3.00;75.76;99547.22;5117473;27;40556;-88
2020/12/26 16:58:49;;;;;;;12.20;7.67;;;;;;;3.04;75.83;99555.00;5203105;22;42602;-87
2020/12/26 17:01:16;;;;;;;11.30;7.67;;;;;;;2.92;75.98;99542.16;5111036;27;44395;-85
2020/12/26 17:03:44;;;;;;;10.50;7.30;;;;;;;2.96;76.08;99554.31;5095745;27;44216;-88
2020/12/26 17:06:15;;;;;;;13.63;8.20;;;;;;;2.98;76.09;99552.50;5108408;28;41869;-86
2020/12/26 17:08:43;;;;;;;10.93;7.97;;;;;;;2.97;76.78;99542.09;5075669;28;42276;-87
2020/12/26 17:11:10;;;;;;;12.07;9.00;;;;;;;2.85;76.34;99517.00;5181202;22;44499;-86
2020/12/26 17:13:38;;;;;;;12.27;9.03;;;;;;;3.04;76.21;99546.28;5084537;28;43087;-85
2020/12/26 17:16:10;;;;;;;12.53;9.33;;;;;;;3.08;76.37;99530.50;5081152;28;40808;-87
2020/12/26 17:18:37;;;;;;;15.27;9.40;;;;;;;3.04;76.14;99523.59;5071425;28;43356;-86
2020/12/26 17:21:07;;;;;;;12.33;8.90;;;;;;;3.17;75.99;99529.44;5162799;22;44106;-87
2020/12/26 17:23:34;;;;;;;11.50;8.30;;;;;;;3.12;75.91;99510.34;5054498;28;41169;-88
2020/12/26 17:26:03;;;;;;;12.80;9.43;;;;;;;3.13;75.76;99507.69;5054526;28;40624;-87
